Pagrindinis puslapis
METAR-TAF:

METAR-TAF

Oro uostai :

Batervortas, Malaizija

platuma: 05-27-58N, ilguma: 100-23-28E, Aukštis: 2 m

Dabartinis oras

Ataskaita buvo paskelbta 1 valandą ir 6 minutes, ne 10:00 UTC
Vėjas 5 kt iš Šiaurės, svyruoja nuo Šiaurės/Šiaurės Vakarų ir Šiaurės/Šiaurės Rytų
Temperatūra 30°C
Drėgmė 62%
Slėgis 1008 hPa
Matomumas: 9000 m
Mažai debesys ne aukštis 2000 ft

METAR: WMKB 061000Z 35005KT 330V030 9000 FEW020 30/22 Q1008 NOSIG

Laikas: 19:06 (11:06 UTC)

Prognozė

Ataskaita buvo paskelbta 6 valandos ir 6 minutes, ne 05:00 UTC
Prognozė galioja nuo 06 metu 06 UTC su 07 metu 06 UTC
Vėjas 15 kt iš Šiaurės/Šiaurės Rytų
Matomumas: 8000 m
Mažai debesys ne aukštis 2000 ft

TAF: WMKB 060500Z 0606/0706 02015KT 8000 FEW020

Orai ataskaitas ir orų prognozės (METAR, TAF).

turimą stotys yra geltonos ir raudonos taškus žemėlapyje.

Perkelti pele per norėdami pamatyti stoties vardą.

Tada spustelėkite, norėdami matyti oro stebėjimo ir prognozės.

Norėdami pakeisti žemėlapį: spustelėkite ant žalios mygtukų su juodo kryžiaus žemyn,; žalią mygtuką su brūkšneliu, jei norite nutolinti; arba žalių rodyklių gretimoms žemėlapius.


METAR-TAF: